sensor_id;sensor_type;location;lat;lon;timestamp;temperature;humidity
7476;DHT22;3779;49.216;8.650;2023-02-15T00:02:11;17.40;36.50
7476;DHT22;3779;49.216;8.650;2023-02-15T00:04:57;17.00;36.00
7476;DHT22;3779;49.216;8.650;2023-02-15T00:07:43;17.40;36.40
7476;DHT22;3779;49.216;8.650;2023-02-15T00:10:29;17.30;36.30
7476;DHT22;3779;49.216;8.650;2023-02-15T00:13:15;17.40;36.50
7476;DHT22;3779;49.216;8.650;2023-02-15T00:16:06;17.30;36.50
7476;DHT22;3779;49.216;8.650;2023-02-15T00:18:52;17.30;36.60
7476;DHT22;3779;49.216;8.650;2023-02-15T00:21:39;17.50;36.90
7476;DHT22;3779;49.216;8.650;2023-02-15T00:24:25;17.40;36.90
7476;DHT22;3779;49.216;8.650;2023-02-15T00:27:11;17.30;36.40
7476;DHT22;3779;49.216;8.650;2023-02-15T00:29:58;17.60;36.90
7476;DHT22;3779;49.216;8.650;2023-02-15T00:32:44;17.30;36.40
7476;DHT22;3779;49.216;8.650;2023-02-15T00:35:32;17.40;36.90
7476;DHT22;3779;49.216;8.650;2023-02-15T00:38:18;17.60;37.00
7476;DHT22;3779;49.216;8.650;2023-02-15T00:41:05;17.40;36.90
7476;DHT22;3779;49.216;8.650;2023-02-15T00:43:51;17.40;36.90
7476;DHT22;3779;49.216;8.650;2023-02-15T00:46:37;17.50;37.30
7476;DHT22;3779;49.216;8.650;2023-02-15T00:49:23;17.50;36.90
7476;DHT22;3779;49.216;8.650;2023-02-15T00:52:09;17.50;36.80
7476;DHT22;3779;49.216;8.650;2023-02-15T00:54:55;17.50;36.80
7476;DHT22;3779;49.216;8.650;2023-02-15T00:57:41;17.50;37.10
7476;DHT22;3779;49.216;8.650;2023-02-15T01:00:27;17.50;36.60
7476;DHT22;3779;49.216;8.650;2023-02-15T01:03:14;17.50;36.70
7476;DHT22;3779;49.216;8.650;2023-02-15T01:06:02;17.50;36.50
7476;DHT22;3779;49.216;8.650;2023-02-15T01:08:48;17.50;36.90
7476;DHT22;3779;49.216;8.650;2023-02-15T01:11:34;17.50;37.00
7476;DHT22;3779;49.216;8.650;2023-02-15T01:14:20;17.50;36.70
7476;DHT22;3779;49.216;8.650;2023-02-15T01:17:06;17.40;36.50
7476;DHT22;3779;49.216;8.650;2023-02-15T01:19:54;17.40;36.50
7476;DHT22;3779;49.216;8.650;2023-02-15T01:22:40;17.40;36.30
7476;DHT22;3779;49.216;8.650;2023-02-15T01:25:26;17.50;36.30
7476;DHT22;3779;49.216;8.650;2023-02-15T01:28:14;17.30;36.20
7476;DHT22;3779;49.216;8.650;2023-02-15T01:31:05;17.50;36.50
7476;DHT22;3779;49.216;8.650;2023-02-15T01:33:51;17.30;36.80
7476;DHT22;3779;49.216;8.650;2023-02-15T01:36:36;17.30;36.70
7476;DHT22;3779;49.216;8.650;2023-02-15T01:39:22;17.30;36.80
7476;DHT22;3779;49.216;8.650;2023-02-15T01:42:11;17.30;36.30
7476;DHT22;3779;49.216;8.650;2023-02-15T01:48:05;17.30;36.40
7476;DHT22;3779;49.216;8.650;2023-02-15T01:50:56;17.30;37.10
7476;DHT22;3779;49.216;8.650;2023-02-15T01:53:54;17.30;36.90
7476;DHT22;3779;49.216;8.650;2023-02-15T01:56:42;17.30;36.60
7476;DHT22;3779;49.216;8.650;2023-02-15T01:59:29;17.30;36.70
7476;DHT22;3779;49.216;8.650;2023-02-15T02:02:17;17.30;36.60
7476;DHT22;3779;49.216;8.650;2023-02-15T02:05:07;17.40;37.10
7476;DHT22;3779;49.216;8.650;2023-02-15T02:07:55;17.30;36.70
7476;DHT22;3779;49.216;8.650;2023-02-15T02:10:42;17.30;36.70
7476;DHT22;3779;49.216;8.650;2023-02-15T02:13:28;17.50;37.50
7476;DHT22;3779;49.216;8.650;2023-02-15T02:16:28;17.30;36.60
7476;DHT22;3779;49.216;8.650;2023-02-15T02:29:00;17.30;36.40
7476;DHT22;3779;49.216;8.650;2023-02-15T02:35:01;17.30;37.10
7476;DHT22;3779;49.216;8.650;2023-02-15T02:38:05;17.30;37.00
7476;DHT22;3779;49.216;8.650;2023-02-15T02:41:16;17.30;36.40
7476;DHT22;3779;49.216;8.650;2023-02-15T02:47:02;17.30;36.30
7476;DHT22;3779;49.216;8.650;2023-02-15T02:50:06;17.30;36.70
7476;DHT22;3779;49.216;8.650;2023-02-15T02:52:55;17.30;36.80
7476;DHT22;3779;49.216;8.650;2023-02-15T02:58:39;17.40;35.50
7476;DHT22;3779;49.216;8.650;2023-02-15T03:01:28;17.30;35.90
7476;DHT22;3779;49.216;8.650;2023-02-15T03:04:18;17.30;35.80
7476;DHT22;3779;49.216;8.650;2023-02-15T03:07:10;17.30;36.00
7476;DHT22;3779;49.216;8.650;2023-02-15T03:09:59;17.30;36.00
7476;DHT22;3779;49.216;8.650;2023-02-15T03:12:46;17.30;35.80
7476;DHT22;3779;49.216;8.650;2023-02-15T03:15:38;17.20;35.80
7476;DHT22;3779;49.216;8.650;2023-02-15T03:18:47;17.40;36.40
7476;DHT22;3779;49.216;8.650;2023-02-15T03:21:49;17.20;35.90
7476;DHT22;3779;49.216;8.650;2023-02-15T03:25:09;17.30;36.20
7476;DHT22;3779;49.216;8.650;2023-02-15T03:28:02;17.20;36.40
7476;DHT22;3779;49.216;8.650;2023-02-15T03:30:53;17.40;36.20
7476;DHT22;3779;49.216;8.650;2023-02-15T03:33:44;17.20;36.10
7476;DHT22;3779;49.216;8.650;2023-02-15T03:46:37;17.20;35.80
7476;DHT22;3779;49.216;8.650;2023-02-15T03:50:07;17.10;35.70
7476;DHT22;3779;49.216;8.650;2023-02-15T03:52:44;17.10;35.70
7476;DHT22;3779;49.216;8.650;2023-02-15T03:55:30;17.20;35.50
7476;DHT22;3779;49.216;8.650;2023-02-15T03:58:16;17.20;35.50
7476;DHT22;3779;49.216;8.650;2023-02-15T04:04:41;17.10;36.40
7476;DHT22;3779;49.216;8.650;2023-02-15T04:07:28;17.20;36.30
7476;DHT22;3779;49.216;8.650;2023-02-15T04:10:14;17.30;36.60
7476;DHT22;3779;49.216;8.650;2023-02-15T04:13:20;17.20;35.60
7476;DHT22;3779;49.216;8.650;2023-02-15T04:16:06;17.20;35.60
7476;DHT22;3779;49.216;8.650;2023-02-15T04:18:53;17.20;35.50
7476;DHT22;3779;49.216;8.650;2023-02-15T04:21:58;17.20;35.20
7476;DHT22;3779;49.216;8.650;2023-02-15T04:25:03;17.40;35.20
7476;DHT22;3779;49.216;8.650;2023-02-15T04:28:01;17.20;35.40
7476;DHT22;3779;49.216;8.650;2023-02-15T04:30:46;17.10;34.90
7476;DHT22;3779;49.216;8.650;2023-02-15T04:33:32;17.10;35.00
7476;DHT22;3779;49.216;8.650;2023-02-15T04:36:20;17.10;35.10
7476;DHT22;3779;49.216;8.650;2023-02-15T04:39:07;17.10;34.90
7476;DHT22;3779;49.216;8.650;2023-02-15T04:41:53;17.10;35.00
7476;DHT22;3779;49.216;8.650;2023-02-15T04:44:39;17.10;35.40
7476;DHT22;3779;49.216;8.650;2023-02-15T04:47:25;17.10;34.50
7476;DHT22;3779;49.216;8.650;2023-02-15T04:50:11;17.10;35.30
7476;DHT22;3779;49.216;8.650;2023-02-15T04:52:57;17.10;35.30
7476;DHT22;3779;49.216;8.650;2023-02-15T04:55:43;17.10;35.10
7476;DHT22;3779;49.216;8.650;2023-02-15T04:58:28;17.10;35.00
7476;DHT22;3779;49.216;8.650;2023-02-15T05:01:14;17.10;34.70
7476;DHT22;3779;49.216;8.650;2023-02-15T05:04:00;17.10;34.80
7476;DHT22;3779;49.216;8.650;2023-02-15T05:06:47;17.10;34.60
7476;DHT22;3779;49.216;8.650;2023-02-15T05:09:33;17.10;34.00
7476;DHT22;3779;49.216;8.650;2023-02-15T05:12:19;17.00;34.10
7476;DHT22;3779;49.216;8.650;2023-02-15T05:15:05;17.00;34.20
7476;DHT22;3779;49.216;8.650;2023-02-15T05:17:50;17.00;33.70
7476;DHT22;3779;49.216;8.650;2023-02-15T05:20:36;17.00;33.80
7476;DHT22;3779;49.216;8.650;2023-02-15T05:23:22;17.00;34.00
7476;DHT22;3779;49.216;8.650;2023-02-15T05:26:11;17.00;33.90
7476;DHT22;3779;49.216;8.650;2023-02-15T05:29:16;17.00;34.40
7476;DHT22;3779;49.216;8.650;2023-02-15T05:32:02;17.00;34.20
7476;DHT22;3779;49.216;8.650;2023-02-15T05:34:48;17.20;34.60
7476;DHT22;3779;49.216;8.650;2023-02-15T05:37:34;17.00;34.70
7476;DHT22;3779;49.216;8.650;2023-02-15T05:40:20;17.20;34.70
7476;DHT22;3779;49.216;8.650;2023-02-15T05:43:08;17.10;34.90
7476;DHT22;3779;49.216;8.650;2023-02-15T05:45:54;17.10;34.60
7476;DHT22;3779;49.216;8.650;2023-02-15T05:48:40;17.10;34.30
7476;DHT22;3779;49.216;8.650;2023-02-15T05:51:26;17.10;33.70
7476;DHT22;3779;49.216;8.650;2023-02-15T05:54:12;17.10;33.90
7476;DHT22;3779;49.216;8.650;2023-02-15T05:56:58;17.00;33.70
7476;DHT22;3779;49.216;8.650;2023-02-15T05:59:44;17.00;33.30
7476;DHT22;3779;49.216;8.650;2023-02-15T06:02:33;17.10;33.30
7476;DHT22;3779;49.216;8.650;2023-02-15T06:05:20;17.00;33.50
7476;DHT22;3779;49.216;8.650;2023-02-15T06:08:06;17.00;33.80
7476;DHT22;3779;49.216;8.650;2023-02-15T06:10:52;17.00;33.80
7476;DHT22;3779;49.216;8.650;2023-02-15T06:13:39;17.20;34.20
7476;DHT22;3779;49.216;8.650;2023-02-15T06:16:25;17.00;33.50
7476;DHT22;3779;49.216;8.650;2023-02-15T06:19:11;17.10;33.90
7476;DHT22;3779;49.216;8.650;2023-02-15T06:21:57;17.00;33.90
7476;DHT22;3779;49.216;8.650;2023-02-15T06:24:43;17.10;33.60
7476;DHT22;3779;49.216;8.650;2023-02-15T06:27:29;17.00;33.40
7476;DHT22;3779;49.216;8.650;2023-02-15T06:30:15;17.00;33.80
7476;DHT22;3779;49.216;8.650;2023-02-15T06:33:01;17.00;33.10
7476;DHT22;3779;49.216;8.650;2023-02-15T06:35:47;17.20;33.90
7476;DHT22;3779;49.216;8.650;2023-02-15T06:38:33;17.10;33.80
7476;DHT22;3779;49.216;8.650;2023-02-15T06:41:19;17.00;33.60
7476;DHT22;3779;49.216;8.650;2023-02-15T06:44:05;17.00;33.60
7476;DHT22;3779;49.216;8.650;2023-02-15T06:46:51;17.00;33.20
7476;DHT22;3779;49.216;8.650;2023-02-15T06:49:37;17.00;33.50
7476;DHT22;3779;49.216;8.650;2023-02-15T06:52:23;17.00;33.60
7476;DHT22;3779;49.216;8.650;2023-02-15T06:55:09;17.00;33.50
7476;DHT22;3779;49.216;8.650;2023-02-15T06:57:55;17.00;33.50
7476;DHT22;3779;49.216;8.650;2023-02-15T07:00:41;17.00;33.40
7476;DHT22;3779;49.216;8.650;2023-02-15T07:03:29;16.90;33.10
7476;DHT22;3779;49.216;8.650;2023-02-15T07:06:15;16.90;33.50
7476;DHT22;3779;49.216;8.650;2023-02-15T07:09:01;16.90;33.00
7476;DHT22;3779;49.216;8.650;2023-02-15T07:11:47;16.90;33.30
7476;DHT22;3779;49.216;8.650;2023-02-15T07:14:52;16.90;33.20
7476;DHT22;3779;49.216;8.650;2023-02-15T07:17:37;16.90;33.30
7476;DHT22;3779;49.216;8.650;2023-02-15T07:20:24;16.90;33.00
7476;DHT22;3779;49.216;8.650;2023-02-15T07:23:09;16.90;33.70
7476;DHT22;3779;49.216;8.650;2023-02-15T07:26:01;16.90;33.70
7476;DHT22;3779;49.216;8.650;2023-02-15T07:28:48;17.00;33.90
7476;DHT22;3779;49.216;8.650;2023-02-15T07:31:34;16.90;33.80
7476;DHT22;3779;49.216;8.650;2023-02-15T07:34:20;17.00;33.80
7476;DHT22;3779;49.216;8.650;2023-02-15T07:37:06;16.90;33.00
7476;DHT22;3779;49.216;8.650;2023-02-15T07:39:52;16.90;33.40
7476;DHT22;3779;49.216;8.650;2023-02-15T07:42:38;16.90;33.20
7476;DHT22;3779;49.216;8.650;2023-02-15T07:45:24;16.90;33.20
7476;DHT22;3779;49.216;8.650;2023-02-15T07:48:09;16.90;33.40
7476;DHT22;3779;49.216;8.650;2023-02-15T07:51:00;17.10;33.70
7476;DHT22;3779;49.216;8.650;2023-02-15T07:53:46;16.90;33.70
7476;DHT22;3779;49.216;8.650;2023-02-15T07:56:32;17.00;33.80
7476;DHT22;3779;49.216;8.650;2023-02-15T07:59:18;17.00;33.40
7476;DHT22;3779;49.216;8.650;2023-02-15T08:02:10;17.00;33.30
7476;DHT22;3779;49.216;8.650;2023-02-15T08:04:55;16.90;33.50
7476;DHT22;3779;49.216;8.650;2023-02-15T08:07:41;17.00;32.90
7476;DHT22;3779;49.216;8.650;2023-02-15T08:10:27;16.90;33.40
7476;DHT22;3779;49.216;8.650;2023-02-15T08:13:33;17.00;33.30
7476;DHT22;3779;49.216;8.650;2023-02-15T08:16:37;16.90;33.80
7476;DHT22;3779;49.216;8.650;2023-02-15T08:19:27;17.00;34.10
7476;DHT22;3779;49.216;8.650;2023-02-15T08:22:14;17.00;33.30
7476;DHT22;3779;49.216;8.650;2023-02-15T08:25:00;16.90;33.10
7476;DHT22;3779;49.216;8.650;2023-02-15T08:27:46;17.10;33.10
7476;DHT22;3779;49.216;8.650;2023-02-15T08:30:32;17.00;33.40
7476;DHT22;3779;49.216;8.650;2023-02-15T08:33:18;16.90;32.80
7476;DHT22;3779;49.216;8.650;2023-02-15T08:36:05;16.90;32.90
7476;DHT22;3779;49.216;8.650;2023-02-15T08:38:52;16.90;32.70
7476;DHT22;3779;49.216;8.650;2023-02-15T08:41:39;16.90;32.90
7476;DHT22;3779;49.216;8.650;2023-02-15T08:44:27;16.90;33.00
7476;DHT22;3779;49.216;8.650;2023-02-15T08:47:13;17.10;38.10
7476;DHT22;3779;49.216;8.650;2023-02-15T08:49:59;17.30;33.70
7476;DHT22;3779;49.216;8.650;2023-02-15T08:52:44;17.30;32.50
7476;DHT22;3779;49.216;8.650;2023-02-15T08:55:30;17.10;32.60
7476;DHT22;3779;49.216;8.650;2023-02-15T08:58:16;17.00;32.60
7476;DHT22;3779;49.216;8.650;2023-02-15T09:01:09;17.20;33.10
7476;DHT22;3779;49.216;8.650;2023-02-15T09:04:00;17.00;32.80
7476;DHT22;3779;49.216;8.650;2023-02-15T09:06:48;17.00;32.80
7476;DHT22;3779;49.216;8.650;2023-02-15T09:09:34;16.90;32.60
7476;DHT22;3779;49.216;8.650;2023-02-15T09:12:20;17.00;34.10
7476;DHT22;3779;49.216;8.650;2023-02-15T09:15:06;17.00;33.10
7476;DHT22;3779;49.216;8.650;2023-02-15T09:17:52;17.00;33.50
7476;DHT22;3779;49.216;8.650;2023-02-15T09:20:38;17.00;33.60
7476;DHT22;3779;49.216;8.650;2023-02-15T09:23:24;17.00;32.80
7476;DHT22;3779;49.216;8.650;2023-02-15T09:26:15;17.00;32.70
7476;DHT22;3779;49.216;8.650;2023-02-15T09:29:02;17.00;33.20
7476;DHT22;3779;49.216;8.650;2023-02-15T09:31:50;17.00;33.10
7476;DHT22;3779;49.216;8.650;2023-02-15T09:34:36;17.00;32.90
7476;DHT22;3779;49.216;8.650;2023-02-15T09:37:21;16.90;32.80
7476;DHT22;3779;49.216;8.650;2023-02-15T09:40:07;16.90;32.80
7476;DHT22;3779;49.216;8.650;2023-02-15T09:43:29;16.60;32.70
7476;DHT22;3779;49.216;8.650;2023-02-15T09:49:15;17.00;34.20
7476;DHT22;3779;49.216;8.650;2023-02-15T10:11:07;17.00;33.10
7476;DHT22;3779;49.216;8.650;2023-02-15T10:14:30;16.90;33.20
7476;DHT22;3779;49.216;8.650;2023-02-15T10:26:20;16.90;33.10
7476;DHT22;3779;49.216;8.650;2023-02-15T10:32:26;17.00;33.50
7476;DHT22;3779;49.216;8.650;2023-02-15T10:35:22;16.90;33.50
7476;DHT22;3779;49.216;8.650;2023-02-15T10:38:40;17.00;33.30
7476;DHT22;3779;49.216;8.650;2023-02-15T10:44:44;17.20;34.10
7476;DHT22;3779;49.216;8.650;2023-02-15T10:50:55;17.00;33.90
7476;DHT22;3779;49.216;8.650;2023-02-15T10:54:48;17.00;34.00
7476;DHT22;3779;49.216;8.650;2023-02-15T11:03:37;17.20;34.20
7476;DHT22;3779;49.216;8.650;2023-02-15T11:06:26;17.30;34.70
7476;DHT22;3779;49.216;8.650;2023-02-15T11:09:13;17.30;34.50
7476;DHT22;3779;49.216;8.650;2023-02-15T11:12:10;17.30;34.40
7476;DHT22;3779;49.216;8.650;2023-02-15T11:15:19;17.30;34.10
7476;DHT22;3779;49.216;8.650;2023-02-15T11:21:05;17.20;34.00
7476;DHT22;3779;49.216;8.650;2023-02-15T11:23:53;17.30;34.20
7476;DHT22;3779;49.216;8.650;2023-02-15T11:26:51;17.40;34.80
7476;DHT22;3779;49.216;8.650;2023-02-15T11:29:57;17.40;34.00
7476;DHT22;3779;49.216;8.650;2023-02-15T11:32:50;17.30;33.50
7476;DHT22;3779;49.216;8.650;2023-02-15T11:35:46;17.20;33.80
7476;DHT22;3779;49.216;8.650;2023-02-15T11:38:34;17.20;34.00
7476;DHT22;3779;49.216;8.650;2023-02-15T11:41:25;17.20;34.40
7476;DHT22;3779;49.216;8.650;2023-02-15T11:44:19;17.40;37.00
7476;DHT22;3779;49.216;8.650;2023-02-15T11:47:13;17.50;35.00
7476;DHT22;3779;49.216;8.650;2023-02-15T11:49:59;17.40;34.10
7476;DHT22;3779;49.216;8.650;2023-02-15T11:52:45;17.40;35.00
7476;DHT22;3779;49.216;8.650;2023-02-15T11:55:31;17.30;34.00
7476;DHT22;3779;49.216;8.650;2023-02-15T12:01:36;17.40;37.80
7476;DHT22;3779;49.216;8.650;2023-02-15T12:04:34;17.50;36.00
7476;DHT22;3779;49.216;8.650;2023-02-15T12:08:00;17.50;34.50
7476;DHT22;3779;49.216;8.650;2023-02-15T12:11:00;17.40;34.50
7476;DHT22;3779;49.216;8.650;2023-02-15T12:14:17;17.40;34.80
7476;DHT22;3779;49.216;8.650;2023-02-15T12:17:03;17.30;34.90
7476;DHT22;3779;49.216;8.650;2023-02-15T12:20:01;17.30;34.50
7476;DHT22;3779;49.216;8.650;2023-02-15T12:22:58;17.30;34.70
7476;DHT22;3779;49.216;8.650;2023-02-15T12:25:52;17.30;34.50
7476;DHT22;3779;49.216;8.650;2023-02-15T12:28:44;17.30;34.50
7476;DHT22;3779;49.216;8.650;2023-02-15T12:31:40;17.30;34.20
7476;DHT22;3779;49.216;8.650;2023-02-15T12:34:35;17.50;36.60
7476;DHT22;3779;49.216;8.650;2023-02-15T12:37:27;17.60;35.20
7476;DHT22;3779;49.216;8.650;2023-02-15T12:40:28;17.60;34.60
7476;DHT22;3779;49.216;8.650;2023-02-15T12:43:37;17.50;34.80
7476;DHT22;3779;49.216;8.650;2023-02-15T12:46:25;17.70;35.50
7476;DHT22;3779;49.216;8.650;2023-02-15T12:49:19;17.60;35.20
7476;DHT22;3779;49.216;8.650;2023-02-15T12:52:24;17.50;34.80
7476;DHT22;3779;49.216;8.650;2023-02-15T12:55:21;17.50;35.00
7476;DHT22;3779;49.216;8.650;2023-02-15T13:01:15;17.40;36.40
7476;DHT22;3779;49.216;8.650;2023-02-15T13:04:04;17.50;35.10
7476;DHT22;3779;49.216;8.650;2023-02-15T13:06:53;17.40;34.80
7476;DHT22;3779;49.216;8.650;2023-02-15T13:09:40;17.40;39.10
7476;DHT22;3779;49.216;8.650;2023-02-15T13:12:29;17.50;35.20
7476;DHT22;3779;49.216;8.650;2023-02-15T13:15:40;17.50;34.30
7476;DHT22;3779;49.216;8.650;2023-02-15T13:21:20;17.40;35.40
7476;DHT22;3779;49.216;8.650;2023-02-15T13:24:36;17.40;35.20
7476;DHT22;3779;49.216;8.650;2023-02-15T13:27:29;17.40;35.20
7476;DHT22;3779;49.216;8.650;2023-02-15T13:30:38;17.50;35.90
7476;DHT22;3779;49.216;8.650;2023-02-15T13:33:32;17.50;35.30
7476;DHT22;3779;49.216;8.650;2023-02-15T13:36:34;17.50;35.70
7476;DHT22;3779;49.216;8.650;2023-02-15T13:40:11;17.50;35.10
7476;DHT22;3779;49.216;8.650;2023-02-15T13:43:12;17.50;36.70
7476;DHT22;3779;49.216;8.650;2023-02-15T13:46:24;17.50;35.70
7476;DHT22;3779;49.216;8.650;2023-02-15T13:49:56;17.60;36.00
7476;DHT22;3779;49.216;8.650;2023-02-15T13:56:02;17.70;35.90
7476;DHT22;3779;49.216;8.650;2023-02-15T14:17:07;17.50;36.70
7476;DHT22;3779;49.216;8.650;2023-02-15T14:20:08;17.60;35.70
7476;DHT22;3779;49.216;8.650;2023-02-15T14:23:38;17.60;36.20
7476;DHT22;3779;49.216;8.650;2023-02-15T14:32:25;17.50;36.00
7476;DHT22;3779;49.216;8.650;2023-02-15T14:35:20;17.50;35.90
7476;DHT22;3779;49.216;8.650;2023-02-15T14:41:58;17.50;36.20
7476;DHT22;3779;49.216;8.650;2023-02-15T14:44:38;17.50;37.40
7476;DHT22;3779;49.216;8.650;2023-02-15T14:48:01;17.60;36.20
7476;DHT22;3779;49.216;8.650;2023-02-15T14:50:49;17.60;37.00
7476;DHT22;3779;49.216;8.650;2023-02-15T14:53:36;17.60;35.90
7476;DHT22;3779;49.216;8.650;2023-02-15T14:56:25;17.60;36.40
7476;DHT22;3779;49.216;8.650;2023-02-15T15:05:01;17.80;37.30
7476;DHT22;3779;49.216;8.650;2023-02-15T15:07:53;17.70;35.60
7476;DHT22;3779;49.216;8.650;2023-02-15T15:10:44;17.90;35.80
7476;DHT22;3779;49.216;8.650;2023-02-15T15:22:34;17.40;36.60
7476;DHT22;3779;49.216;8.650;2023-02-15T15:25:41;17.40;36.30
7476;DHT22;3779;49.216;8.650;2023-02-15T15:31:33;17.40;36.20
7476;DHT22;3779;49.216;8.650;2023-02-15T15:37:58;17.40;36.30
7476;DHT22;3779;49.216;8.650;2023-02-15T15:49:58;17.40;36.60
7476;DHT22;3779;49.216;8.650;2023-02-15T15:52:50;17.40;36.30
7476;DHT22;3779;49.216;8.650;2023-02-15T15:55:37;17.30;36.10
7476;DHT22;3779;49.216;8.650;2023-02-15T15:58:24;17.30;36.30
7476;DHT22;3779;49.216;8.650;2023-02-15T16:01:13;17.40;37.20
7476;DHT22;3779;49.216;8.650;2023-02-15T16:04:01;17.40;36.70
7476;DHT22;3779;49.216;8.650;2023-02-15T16:06:47;17.40;36.10
7476;DHT22;3779;49.216;8.650;2023-02-15T16:09:33;17.40;36.40
7476;DHT22;3779;49.216;8.650;2023-02-15T16:12:20;17.40;36.20
7476;DHT22;3779;49.216;8.650;2023-02-15T16:15:21;17.50;36.70
7476;DHT22;3779;49.216;8.650;2023-02-15T16:18:15;17.50;36.70
7476;DHT22;3779;49.216;8.650;2023-02-15T16:21:02;17.40;36.30
7476;DHT22;3779;49.216;8.650;2023-02-15T16:24:16;17.40;36.10
7476;DHT22;3779;49.216;8.650;2023-02-15T16:33:12;17.40;36.50
7476;DHT22;3779;49.216;8.650;2023-02-15T16:36:03;17.50;37.50
7476;DHT22;3779;49.216;8.650;2023-02-15T16:41:36;17.40;34.80
7476;DHT22;3779;49.216;8.650;2023-02-15T16:44:23;17.40;34.90
7476;DHT22;3779;49.216;8.650;2023-02-15T16:47:24;17.30;34.80
7476;DHT22;3779;49.216;8.650;2023-02-15T16:50:23;17.30;34.90
7476;DHT22;3779;49.216;8.650;2023-02-15T16:53:22;17.20;36.60
7476;DHT22;3779;49.216;8.650;2023-02-15T16:56:09;17.30;35.30
7476;DHT22;3779;49.216;8.650;2023-02-15T16:58:55;17.60;34.70
7476;DHT22;3779;49.216;8.650;2023-02-15T17:01:44;17.20;34.30
7476;DHT22;3779;49.216;8.650;2023-02-15T17:04:31;17.60;34.50
7476;DHT22;3779;49.216;8.650;2023-02-15T17:07:20;17.20;34.30
7476;DHT22;3779;49.216;8.650;2023-02-15T17:13:15;17.10;34.40
7476;DHT22;3779;49.216;8.650;2023-02-15T17:18:49;17.10;34.50
7476;DHT22;3779;49.216;8.650;2023-02-15T17:21:41;17.20;34.70
7476;DHT22;3779;49.216;8.650;2023-02-15T17:24:31;17.20;34.30
7476;DHT22;3779;49.216;8.650;2023-02-15T17:27:24;17.30;33.80
7476;DHT22;3779;49.216;8.650;2023-02-15T17:30:23;17.20;34.20
7476;DHT22;3779;49.216;8.650;2023-02-15T17:33:34;17.20;34.30
7476;DHT22;3779;49.216;8.650;2023-02-15T17:36:23;17.20;34.60
7476;DHT22;3779;49.216;8.650;2023-02-15T17:39:22;17.30;33.90
7476;DHT22;3779;49.216;8.650;2023-02-15T17:42:08;17.20;33.90
7476;DHT22;3779;49.216;8.650;2023-02-15T17:44:55;17.10;33.50
7476;DHT22;3779;49.216;8.650;2023-02-15T17:47:47;17.10;33.90
7476;DHT22;3779;49.216;8.650;2023-02-15T17:50:35;17.10;34.00
7476;DHT22;3779;49.216;8.650;2023-02-15T17:53:21;17.10;33.90
7476;DHT22;3779;49.216;8.650;2023-02-15T17:56:07;17.10;33.80
7476;DHT22;3779;49.216;8.650;2023-02-15T17:58:55;17.10;33.90
7476;DHT22;3779;49.216;8.650;2023-02-15T18:01:57;17.10;34.30
7476;DHT22;3779;49.216;8.650;2023-02-15T18:05:01;17.40;35.10
7476;DHT22;3779;49.216;8.650;2023-02-15T18:08:16;17.20;34.50
7476;DHT22;3779;49.216;8.650;2023-02-15T18:11:21;17.10;36.90
7476;DHT22;3779;49.216;8.650;2023-02-15T18:14:23;17.60;36.30
7476;DHT22;3779;49.216;8.650;2023-02-15T18:17:12;17.40;34.50
7476;DHT22;3779;49.216;8.650;2023-02-15T18:20:04;17.30;33.90
7476;DHT22;3779;49.216;8.650;2023-02-15T18:22:52;17.30;33.90
7476;DHT22;3779;49.216;8.650;2023-02-15T18:25:40;17.20;33.30
7476;DHT22;3779;49.216;8.650;2023-02-15T18:28:27;17.50;33.30
7476;DHT22;3779;49.216;8.650;2023-02-15T18:31:15;17.10;33.20
7476;DHT22;3779;49.216;8.650;2023-02-15T18:34:02;17.10;33.40
7476;DHT22;3779;49.216;8.650;2023-02-15T18:36:48;17.10;33.40
7476;DHT22;3779;49.216;8.650;2023-02-15T18:39:41;17.10;33.40
7476;DHT22;3779;49.216;8.650;2023-02-15T18:42:33;17.10;33.40
7476;DHT22;3779;49.216;8.650;2023-02-15T18:45:26;17.30;33.60
7476;DHT22;3779;49.216;8.650;2023-02-15T18:48:20;17.10;33.40
7476;DHT22;3779;49.216;8.650;2023-02-15T18:51:24;17.10;33.10
7476;DHT22;3779;49.216;8.650;2023-02-15T18:54:18;17.00;33.10
7476;DHT22;3779;49.216;8.650;2023-02-15T18:57:08;17.00;33.00
7476;DHT22;3779;49.216;8.650;2023-02-15T18:59:55;17.00;32.50
7476;DHT22;3779;49.216;8.650;2023-02-15T19:02:41;17.00;32.10
7476;DHT22;3779;49.216;8.650;2023-02-15T19:05:28;16.90;31.80
7476;DHT22;3779;49.216;8.650;2023-02-15T19:08:19;16.90;31.80
7476;DHT22;3779;49.216;8.650;2023-02-15T19:11:12;16.90;31.80
7476;DHT22;3779;49.216;8.650;2023-02-15T19:14:01;16.90;31.80
7476;DHT22;3779;49.216;8.650;2023-02-15T19:16:47;16.90;31.50
7476;DHT22;3779;49.216;8.650;2023-02-15T19:19:34;16.90;31.50
7476;DHT22;3779;49.216;8.650;2023-02-15T19:22:28;16.90;31.30
7476;DHT22;3779;49.216;8.650;2023-02-15T19:25:21;16.90;31.70
7476;DHT22;3779;49.216;8.650;2023-02-15T19:28:15;16.80;31.40
7476;DHT22;3779;49.216;8.650;2023-02-15T19:31:11;16.80;31.40
7476;DHT22;3779;49.216;8.650;2023-02-15T19:33:58;16.80;31.20
7476;DHT22;3779;49.216;8.650;2023-02-15T19:36:47;16.90;30.90
7476;DHT22;3779;49.216;8.650;2023-02-15T19:39:37;16.80;31.00
7476;DHT22;3779;49.216;8.650;2023-02-15T19:42:24;16.80;31.00
7476;DHT22;3779;49.216;8.650;2023-02-15T19:45:16;17.00;31.20
7476;DHT22;3779;49.216;8.650;2023-02-15T19:48:05;16.80;31.20
7476;DHT22;3779;49.216;8.650;2023-02-15T19:50:52;16.80;31.10
7476;DHT22;3779;49.216;8.650;2023-02-15T19:53:39;16.80;31.50
7476;DHT22;3779;49.216;8.650;2023-02-15T19:56:26;16.90;31.10
7476;DHT22;3779;49.216;8.650;2023-02-15T19:59:26;16.90;31.00
7476;DHT22;3779;49.216;8.650;2023-02-15T20:02:16;16.90;31.30
7476;DHT22;3779;49.216;8.650;2023-02-15T20:05:05;16.90;31.10
7476;DHT22;3779;49.216;8.650;2023-02-15T20:07:52;16.80;30.80
7476;DHT22;3779;49.216;8.650;2023-02-15T20:10:38;16.80;31.00
7476;DHT22;3779;49.216;8.650;2023-02-15T20:13:24;16.90;30.90
7476;DHT22;3779;49.216;8.650;2023-02-15T20:16:10;16.80;30.90
7476;DHT22;3779;49.216;8.650;2023-02-15T20:18:56;16.80;31.30
7476;DHT22;3779;49.216;8.650;2023-02-15T20:21:44;16.90;30.90
7476;DHT22;3779;49.216;8.650;2023-02-15T20:24:31;16.90;31.40
7476;DHT22;3779;49.216;8.650;2023-02-15T20:27:18;16.90;30.60
7476;DHT22;3779;49.216;8.650;2023-02-15T20:30:13;16.80;30.70
7476;DHT22;3779;49.216;8.650;2023-02-15T20:32:59;16.80;30.50
7476;DHT22;3779;49.216;8.650;2023-02-15T20:35:46;16.80;30.30
7476;DHT22;3779;49.216;8.650;2023-02-15T20:38:32;16.80;30.70
7476;DHT22;3779;49.216;8.650;2023-02-15T20:41:20;16.80;30.90
7476;DHT22;3779;49.216;8.650;2023-02-15T20:44:24;16.80;30.60
7476;DHT22;3779;49.216;8.650;2023-02-15T20:47:11;16.80;30.30
7476;DHT22;3779;49.216;8.650;2023-02-15T20:49:56;16.80;30.20
7476;DHT22;3779;49.216;8.650;2023-02-15T20:52:45;16.80;30.70
7476;DHT22;3779;49.216;8.650;2023-02-15T20:55:31;16.80;30.70
7476;DHT22;3779;49.216;8.650;2023-02-15T20:58:21;16.80;30.00
7476;DHT22;3779;49.216;8.650;2023-02-15T21:01:10;16.80;30.40
7476;DHT22;3779;49.216;8.650;2023-02-15T21:03:57;17.10;30.00
7476;DHT22;3779;49.216;8.650;2023-02-15T21:06:43;16.80;29.90
7476;DHT22;3779;49.216;8.650;2023-02-15T21:09:30;16.30;29.70
7476;DHT22;3779;49.216;8.650;2023-02-15T21:12:17;16.80;30.00
7476;DHT22;3779;49.216;8.650;2023-02-15T21:15:35;16.70;30.00
7476;DHT22;3779;49.216;8.650;2023-02-15T21:21:11;16.70;29.90
7476;DHT22;3779;49.216;8.650;2023-02-15T21:23:58;16.70;30.00
7476;DHT22;3779;49.216;8.650;2023-02-15T21:26:45;16.70;29.70
7476;DHT22;3779;49.216;8.650;2023-02-15T21:29:32;16.70;30.00
7476;DHT22;3779;49.216;8.650;2023-02-15T21:32:18;16.70;29.70